Time;durP1;ratioP1;P1;durP2;ratioP2;P2;SDS_P1;SDS_P2;PMS_P1;PMS_P2;Temp;Humidity;BMP_temperature;BMP_pressure;BME280_temperature;BME280_humidity;BME280_pressure;Samples;Min_cycle;Max_cycle;Signal;HPM_P1;HPM_P2
2023/12/30 00:04:15;;;;;;;5.40;3.20;;;;;;;7.58;91.05;98646.91;273690;1269;23180;-90
2023/12/30 00:10:16;;;;;;;4.40;3.10;;;;;;;7.50;91.21;98648.63;272115;1270;137699;-90
2023/12/30 00:16:17;;;;;;;5.50;3.50;;;;;;;7.45;91.26;98644.98;271167;1269;22210;-89
2023/12/30 00:22:19;;;;;;;5.60;3.30;;;;;;;7.47;91.10;98637.15;273663;1259;22233;-89
2023/12/30 00:28:21;;;;;;;4.20;2.80;;;;;;;7.50;90.73;98633.09;273024;1268;23308;-89
2023/12/30 00:34:34;;;;;;;4.90;2.80;;;;;;;7.52;90.56;98631.47;270082;1273;23775;-89
2023/12/30 00:40:35;;;;;;;5.20;2.80;;;;;;;7.47;90.51;98632.56;270822;1268;22252;-89
2023/12/30 00:46:37;;;;;;;3.60;2.50;;;;;;;7.48;90.21;98634.84;273619;1268;22841;-88
2023/12/30 00:52:46;;;;;;;5.00;3.00;;;;;;;7.52;89.87;98632.63;273714;1270;23166;-89
2023/12/30 00:58:48;;;;;;;5.70;3.10;;;;;;;7.50;89.74;98633.70;272552;1272;22632;-88
2023/12/30 01:04:49;;;;;;;3.90;2.60;;;;;;;7.46;89.70;98635.17;272445;1270;23190;-89
2023/12/30 01:10:51;;;;;;;4.60;2.90;;;;;;;7.38;89.65;98634.96;273653;1266;22351;-89
2023/12/30 01:16:52;;;;;;;5.60;3.10;;;;;;;7.27;89.63;98631.33;273703;1268;23665;-89
2023/12/30 01:22:53;;;;;;;6.00;2.70;;;;;;;7.09;90.06;98630.60;273418;1271;22209;-91
2023/12/30 01:28:54;;;;;;;4.50;2.50;;;;;;;7.15;90.62;98621.55;273281;1272;23389;-89
2023/12/30 01:34:56;;;;;;;4.90;2.80;;;;;;;7.46;90.80;98616.05;271715;1269;22228;-89
2023/12/30 01:40:57;;;;;;;4.30;2.30;;;;;;;7.76;90.39;98607.74;272263;1269;22574;-89
2023/12/30 01:46:58;;;;;;;3.00;2.50;;;;;;;7.99;89.98;98604.66;273470;1268;22418;-89
2023/12/30 01:53:00;;;;;;;4.20;2.60;;;;;;;8.02;89.83;98600.73;273663;1256;22431;-88
2023/12/30 01:59:01;;;;;;;5.30;3.20;;;;;;;8.01;89.56;98583.98;273667;1271;22400;-89
2023/12/30 02:05:04;;;;;;;5.70;3.20;;;;;;;8.06;89.54;98572.45;273267;1270;23708;-89
2023/12/30 02:11:05;;;;;;;5.60;3.00;;;;;;;8.10;89.53;98574.92;273622;1268;22533;-88
2023/12/30 02:17:06;;;;;;;4.60;2.70;;;;;;;8.00;89.54;98573.93;272864;1269;22735;-89
2023/12/30 02:23:08;;;;;;;3.30;2.00;;;;;;;7.89;89.73;98562.71;273623;1268;23427;-87
2023/12/30 02:29:09;;;;;;;4.60;2.70;;;;;;;7.78;89.87;98558.48;273549;1269;22267;-89
2023/12/30 02:35:11;;;;;;;4.30;2.90;;;;;;;7.66;89.97;98561.89;272911;1267;22396;-89
2023/12/30 02:41:13;;;;;;;5.10;2.90;;;;;;;7.56;90.17;98563.83;273009;1270;22496;-88
2023/12/30 02:47:15;;;;;;;4.60;2.90;;;;;;;7.42;90.31;98565.86;272915;1275;22674;-89
2023/12/30 02:53:16;;;;;;;4.60;3.00;;;;;;;7.34;90.51;98563.63;271908;1272;22234;-89
2023/12/30 02:59:17;;;;;;;7.10;3.50;;;;;;;7.42;90.68;98552.77;273041;1270;22339;-87
2023/12/30 03:05:18;;;;;;;9.60;3.60;;;;;;;7.48;90.81;98549.99;273081;1270;22471;-90
2023/12/30 03:11:20;;;;;;;5.30;3.10;;;;;;;7.55;90.79;98547.16;273277;1270;22246;-89
2023/12/30 03:17:21;;;;;;;5.20;3.40;;;;;;;7.61;90.83;98540.19;273109;1270;22445;-89
2023/12/30 03:23:23;;;;;;;5.60;2.80;;;;;;;7.64;90.70;98534.39;273404;1267;22388;-89
2023/12/30 03:29:24;;;;;;;10.00;3.50;;;;;;;7.66;90.65;98529.52;273101;1270;23099;-89
2023/12/30 03:35:25;;;;;;;3.50;2.70;;;;;;;7.68;90.65;98515.14;273014;1270;22213;-88
2023/12/30 03:41:27;;;;;;;3.90;2.80;;;;;;;7.69;90.64;98511.34;273213;1270;22243;-91
2023/12/30 03:47:28;;;;;;;7.30;2.50;;;;;;;7.68;90.69;98505.64;272989;1270;22380;-89
2023/12/30 03:53:30;;;;;;;5.10;2.70;;;;;;;7.71;90.50;98501.95;273020;1270;22313;-89
2023/12/30 03:59:32;;;;;;;6.10;2.60;;;;;;;7.65;90.59;98499.23;272080;1270;23389;-89
2023/12/30 04:05:33;;;;;;;5.20;2.70;;;;;;;7.57;90.72;98505.16;272702;1270;22384;-89
2023/12/30 04:11:36;;;;;;;4.40;2.40;;;;;;;7.55;90.73;98517.74;273112;1260;22342;-90
2023/12/30 04:17:37;;;;;;;4.10;2.60;;;;;;;7.52;90.46;98527.67;273202;1270;22852;-89
2023/12/30 04:23:40;;;;;;;4.30;2.60;;;;;;;7.44;90.49;98532.75;273224;1270;22319;-88
2023/12/30 04:29:41;;;;;;;3.70;2.20;;;;;;;7.34;90.52;98527.52;273158;1270;22887;-89
2023/12/30 04:35:42;;;;;;;3.60;2.50;;;;;;;7.29;90.55;98518.74;273166;1270;22195;-90
2023/12/30 04:41:44;;;;;;;5.00;2.90;;;;;;;7.30;90.56;98509.64;273094;1271;22437;-88
2023/12/30 04:47:45;;;;;;;3.90;2.60;;;;;;;7.28;90.39;98523.21;273372;1270;22372;-89
2023/12/30 04:53:46;;;;;;;3.50;2.50;;;;;;;7.20;90.37;98531.79;273101;1270;22913;-89
2023/12/30 04:59:48;;;;;;;7.00;2.40;;;;;;;7.12;90.57;98534.70;273093;1270;22287;-90
2023/12/30 05:05:51;;;;;;;4.30;2.60;;;;;;;7.07;90.44;98538.89;273343;1254;23038;-89
2023/12/30 05:11:52;;;;;;;8.00;3.00;;;;;;;6.99;90.48;98545.29;273309;1270;22315;-90
2023/12/30 05:17:53;;;;;;;4.90;2.70;;;;;;;6.98;90.56;98541.28;273212;1270;22288;-90
2023/12/30 05:23:55;;;;;;;6.00;2.90;;;;;;;6.98;90.54;98546.50;272361;1257;22251;-89
2023/12/30 05:29:56;;;;;;;3.10;2.00;;;;;;;7.01;90.62;98551.23;272999;1270;23766;-89
2023/12/30 05:35:58;;;;;;;3.50;2.30;;;;;;;7.07;90.73;98558.16;271850;1270;22570;-88
2023/12/30 05:41:59;;;;;;;3.80;2.50;;;;;;;7.14;90.69;98569.58;271601;1270;22460;-88
2023/12/30 05:48:02;;;;;;;3.40;2.20;;;;;;;7.20;90.58;98582.05;272924;1270;22519;-88
2023/12/30 05:54:03;;;;;;;4.40;2.10;;;;;;;7.26;90.46;98589.32;272904;1270;22427;-89
2023/12/30 06:00:07;;;;;;;3.50;2.10;;;;;;;7.38;90.37;98585.32;273354;1270;22320;-88
2023/12/30 06:06:13;;;;;;;3.00;2.10;;;;;;;7.41;90.17;98592.38;272876;1270;22331;-87
2023/12/30 06:12:15;;;;;;;3.20;2.00;;;;;;;7.37;89.97;98603.27;272542;1270;22390;-88
2023/12/30 06:18:16;;;;;;;5.70;2.10;;;;;;;7.31;89.89;98607.36;272855;1270;22188;-89
2023/12/30 06:24:18;;;;;;;2.20;1.70;;;;;;;7.21;89.76;98620.95;273267;1272;22609;-90
2023/12/30 06:30:20;;;;;;;5.00;2.40;;;;;;;7.12;90.04;98620.80;272822;1270;22964;-89
2023/12/30 06:36:23;;;;;;;2.90;2.00;;;;;;;7.06;90.05;98618.58;273088;1268;22210;-90
2023/12/30 06:42:24;;;;;;;4.80;2.40;;;;;;;6.97;90.11;98617.77;273178;1272;22209;-90
2023/12/30 06:48:25;;;;;;;6.20;2.10;;;;;;;6.85;90.25;98620.75;272925;1270;23913;-89
2023/12/30 06:54:27;;;;;;;5.40;2.40;;;;;;;6.72;90.44;98621.41;273165;1269;22307;-88
2023/12/30 07:00:30;;;;;;;4.60;2.20;;;;;;;6.58;90.75;98625.23;272006;1268;23366;-89
2023/12/30 07:06:33;;;;;;;4.70;2.60;;;;;;;6.43;90.98;98630.36;273297;1269;22313;-89
2023/12/30 07:12:35;;;;;;;5.20;3.10;;;;;;;6.34;91.46;98634.45;272562;1270;23230;-89
2023/12/30 07:18:36;;;;;;;5.50;3.20;;;;;;;6.28;91.80;98646.20;272305;1269;22226;-90
2023/12/30 07:24:37;;;;;;;7.00;3.30;;;;;;;6.36;92.42;98660.27;273204;1272;22964;-89
2023/12/30 07:30:39;;;;;;;4.90;2.80;;;;;;;6.55;92.55;98658.02;270758;1270;24228;-91
2023/12/30 07:36:41;;;;;;;4.40;2.60;;;;;;;6.83;92.56;98656.21;272890;1270;23528;-89
2023/12/30 07:42:43;;;;;;;5.00;2.80;;;;;;;7.08;92.38;98658.66;273047;1270;22298;-90
2023/12/30 07:48:44;;;;;;;4.70;3.10;;;;;;;7.32;92.15;98656.64;272918;1272;23743;-90
2023/12/30 07:54:48;;;;;;;5.50;2.70;;;;;;;7.50;92.14;98658.91;273005;1270;22804;-90
2023/12/30 08:00:50;;;;;;;3.70;2.70;;;;;;;7.66;92.14;98654.81;272961;1270;22313;-89
2023/12/30 08:06:51;;;;;;;5.40;3.00;;;;;;;7.86;92.02;98657.51;273443;1271;22994;-87
2023/12/30 08:12:52;;;;;;;6.00;2.50;;;;;;;8.02;91.75;98660.33;273357;1269;23035;-88
2023/12/30 08:18:54;;;;;;;6.80;2.00;;;;;;;8.14;91.69;98669.92;273391;1269;23758;-88
2023/12/30 08:24:55;;;;;;;2.50;1.70;;;;;;;8.28;91.53;98669.48;273325;1268;22391;-89
2023/12/30 08:30:59;;;;;;;4.10;1.70;;;;;;;8.52;91.12;98677.85;273235;1271;22347;-89
2023/12/30 08:37:08;;;;;;;2.20;1.30;;;;;;;8.78;90.42;98674.48;272967;1269;23096;-90
2023/12/30 08:43:10;;;;;;;2.50;1.30;;;;;;;9.04;89.97;98673.55;272892;1269;22242;-89
2023/12/30 08:49:12;;;;;;;2.90;1.50;;;;;;;9.40;89.53;98671.69;273046;1269;23234;-89
2023/12/30 08:55:13;;;;;;;2.40;1.30;;;;;;;9.73;88.71;98683.96;273230;1256;23045;-90
2023/12/30 09:01:16;;;;;;;2.80;1.30;;;;;;;10.06;87.98;98691.60;273020;1269;22259;-89
2023/12/30 09:07:18;;;;;;;2.60;1.20;;;;;;;10.53;87.38;98693.14;272241;1270;24219;-90
2023/12/30 09:13:22;;;;;;;2.40;1.50;;;;;;;10.98;85.36;98690.66;271385;1271;23060;-89
2023/12/30 09:19:26;;;;;;;3.10;1.10;;;;;;;11.29;83.95;98692.11;273200;1271;22609;-90
2023/12/30 09:25:28;;;;;;;3.50;1.20;;;;;;;11.79;83.62;98691.23;272141;1269;22537;-89
2023/12/30 09:31:34;;;;;;;2.30;1.20;;;;;;;12.11;82.24;98689.93;270097;1270;23681;-90
2023/12/30 09:37:36;;;;;;;2.40;1.10;;;;;;;12.42;81.28;98692.35;272516;1271;22180;-90
2023/12/30 09:43:38;;;;;;;2.00;0.80;;;;;;;12.78;79.86;98685.30;273188;1270;22375;-91
2023/12/30 09:49:40;;;;;;;4.40;0.70;;;;;;;13.01;78.39;98675.20;273190;1270;22430;-91
2023/12/30 09:55:46;;;;;;;6.60;1.10;;;;;;;13.00;76.95;98673.08;272943;1269;22494;-88
2023/12/30 10:01:48;;;;;;;1.50;1.00;;;;;;;13.04;74.90;98672.06;272802;1271;22207;-90
2023/12/30 10:07:49;;;;;;;6.60;2.20;;;;;;;13.06;74.06;98664.98;271474;1270;23434;-89
2023/12/30 10:13:53;;;;;;;2.60;0.90;;;;;;;13.13;72.80;98672.34;272311;1269;23952;-92
2023/12/30 10:19:56;;;;;;;2.60;0.80;;;;;;;13.21;72.49;98669.71;271146;1270;22559;-89
2023/12/30 10:26:01;;;;;;;3.00;1.20;;;;;;;13.17;71.19;98682.05;272330;1270;22292;-89
2023/12/30 10:32:03;;;;;;;4.70;1.10;;;;;;;13.02;70.12;98687.04;272811;1270;23545;-89
2023/12/30 10:38:18;;;;;;;1.80;0.90;;;;;;;12.80;68.26;98683.89;273097;1270;22530;-91
2023/12/30 10:44:21;;;;;;;4.20;1.20;;;;;;;12.53;68.17;98694.30;271028;1272;23013;-89
2023/12/30 10:50:25;;;;;;;3.10;1.00;;;;;;;12.38;68.26;98702.23;273058;1272;22298;-89
2023/12/30 10:56:30;;;;;;;2.40;1.10;;;;;;;11.99;68.36;98703.41;273058;1271;22087;-87
2023/12/30 11:02:31;;;;;;;2.80;1.30;;;;;;;11.59;67.63;98709.67;272185;1270;22434;-87
2023/12/30 11:08:33;;;;;;;5.70;1.20;;;;;;;11.23;68.50;98721.36;273224;1272;22281;-88
2023/12/30 11:14:38;;;;;;;2.60;1.50;;;;;;;11.11;69.06;98721.48;273158;1270;22222;-87
2023/12/30 11:20:46;;;;;;;2.80;1.10;;;;;;;11.03;68.63;98716.20;273303;1269;22400;-87
2023/12/30 11:26:47;;;;;;;3.70;1.20;;;;;;;10.95;69.30;98720.93;272398;1272;22571;-87
2023/12/30 11:32:49;;;;;;;3.40;1.40;;;;;;;10.93;69.47;98721.23;270993;1270;22380;-89
2023/12/30 11:38:52;;;;;;;2.90;1.50;;;;;;;10.89;69.68;98724.81;273194;1270;22390;-90
2023/12/30 11:44:54;;;;;;;2.60;1.00;;;;;;;10.82;69.84;98728.60;273099;1269;22236;-89
2023/12/30 11:50:55;;;;;;;2.80;1.00;;;;;;;10.71;69.80;98733.22;273059;1269;22475;-89
2023/12/30 11:56:57;;;;;;;3.40;1.50;;;;;;;10.63;70.07;98738.41;273154;1269;22420;-89
2023/12/30 12:02:59;;;;;;;3.60;1.70;;;;;;;10.58;70.12;98740.02;273261;1269;23194;-90
2023/12/30 12:09:01;;;;;;;5.40;1.40;;;;;;;10.50;70.41;98740.91;273029;1272;217553;-88
2023/12/30 12:15:04;;;;;;;4.30;2.20;;;;;;;10.37;70.27;98758.94;272859;1269;22889;-88
2023/12/30 12:21:14;;;;;;;3.70;2.00;;;;;;;9.82;71.75;98776.20;273238;1270;22208;-89
2023/12/30 12:27:20;;;;;;;6.70;2.30;;;;;;;9.14;74.07;98790.52;273125;1270;22404;-89
2023/12/30 12:33:22;;;;;;;8.90;4.80;;;;;;;8.56;76.45;98803.80;273118;1271;22202;-89
2023/12/30 12:39:24;;;;;;;5.50;2.80;;;;;;;8.11;78.47;98811.41;273072;1273;22187;-89
2023/12/30 12:45:25;;;;;;;4.40;2.00;;;;;;;7.83;79.83;98811.45;273271;1272;22225;-89
2023/12/30 12:51:26;;;;;;;3.50;1.80;;;;;;;7.66;80.76;98815.95;273369;1269;22413;-88
2023/12/30 12:57:28;;;;;;;2.10;1.20;;;;;;;7.54;80.76;98825.91;273019;1269;22401;-89
2023/12/30 13:03:29;;;;;;;2.30;1.10;;;;;;;7.47;80.95;98833.00;273035;1262;22993;-89
2023/12/30 13:15:32;;;;;;;2.60;0.90;;;;;;;7.36;81.76;98839.06;273053;1269;22200;-89
2023/12/30 13:21:34;;;;;;;2.50;1.20;;;;;;;7.34;82.18;98839.17;273029;1272;22366;-90
2023/12/30 13:27:36;;;;;;;2.00;1.20;;;;;;;7.32;82.44;98844.75;272959;1272;22206;-88
2023/12/30 13:33:37;;;;;;;3.20;1.40;;;;;;;7.28;82.60;98858.05;272949;1269;22298;-89
2023/12/30 13:39:41;;;;;;;2.00;1.10;;;;;;;7.22;83.32;98867.79;272915;1270;22167;-89
2023/12/30 13:45:46;;;;;;;2.30;1.40;;;;;;;7.18;83.98;98876.34;273082;1270;22294;-88
2023/12/30 13:51:49;;;;;;;6.80;2.70;;;;;;;7.15;84.25;98885.90;273281;1269;23197;-90
2023/12/30 13:57:52;;;;;;;4.90;1.70;;;;;;;7.05;84.81;98891.66;273266;1270;23132;-90
2023/12/30 14:03:55;;;;;;;2.80;1.20;;;;;;;6.94;85.77;98892.94;273326;1269;22343;-88
2023/12/30 14:10:06;;;;;;;4.50;1.50;;;;;;;6.82;86.28;98884.98;273110;1272;23611;-89
2023/12/30 14:16:11;;;;;;;3.60;1.80;;;;;;;6.68;87.54;98887.34;273031;1269;23633;-88
2023/12/30 14:22:14;;;;;;;5.20;2.20;;;;;;;6.55;88.41;98883.69;272999;1269;23666;-88
2023/12/30 14:28:15;;;;;;;4.60;2.40;;;;;;;6.46;89.23;98888.52;273049;1269;22288;-88
2023/12/30 14:34:16;;;;;;;4.40;1.60;;;;;;;6.38;89.75;98901.19;272980;1269;22204;-88
2023/12/30 14:40:18;;;;;;;4.60;2.00;;;;;;;6.26;90.94;98898.41;273227;1273;22459;-90
2023/12/30 14:46:20;;;;;;;9.30;4.30;;;;;;;6.12;91.75;98896.15;273165;1268;22220;-88
2023/12/30 14:52:21;;;;;;;12.20;4.90;;;;;;;6.05;92.94;98897.61;273298;1269;22869;-89
2023/12/30 14:58:23;;;;;;;9.90;4.30;;;;;;;6.05;93.55;98907.08;273239;1270;22214;-88
2023/12/30 15:04:24;;;;;;;6.00;3.40;;;;;;;6.01;93.74;98898.35;273248;1269;23067;-89
2023/12/30 15:10:28;;;;;;;14.30;8.00;;;;;;;5.94;94.76;98901.11;273171;1270;22432;-88
2023/12/30 15:16:29;;;;;;;7.50;3.80;;;;;;;5.92;95.10;98908.82;273095;1270;22630;-90
2023/12/30 15:22:35;;;;;;;6.10;3.50;;;;;;;5.93;96.09;98918.62;273005;1274;22407;-88
2023/12/30 15:28:36;;;;;;;6.90;3.50;;;;;;;5.92;95.99;98918.14;272544;1269;22210;-88
2023/12/30 15:34:38;;;;;;;6.10;3.10;;;;;;;5.86;95.73;98910.95;272869;1272;22403;-90
2023/12/30 15:40:41;;;;;;;6.80;3.70;;;;;;;5.74;96.14;98916.10;272798;1272;23038;-89
2023/12/30 15:46:43;;;;;;;7.40;4.60;;;;;;;5.70;97.61;98923.98;273274;1270;23395;-89
2023/12/30 15:52:44;;;;;;;12.30;5.60;;;;;;;5.71;97.64;98924.40;273026;1270;22522;-89
2023/12/30 15:58:45;;;;;;;9.20;6.00;;;;;;;5.70;98.36;98919.39;273331;1272;23400;-89
2023/12/30 16:04:47;;;;;;;17.70;8.30;;;;;;;5.73;98.93;98915.15;273070;1270;22791;-89
2023/12/30 16:10:48;;;;;;;12.70;7.90;;;;;;;5.76;99.29;98911.67;273196;1269;22346;-89
2023/12/30 16:16:50;;;;;;;14.90;8.20;;;;;;;5.79;99.80;98919.76;273246;1269;23124;-89
2023/12/30 16:22:53;;;;;;;16.00;9.40;;;;;;;5.79;99.91;98919.50;273006;1270;22324;-89
2023/12/30 16:28:57;;;;;;;14.50;9.10;;;;;;;5.73;99.93;98915.47;272968;1270;23458;-87
2023/12/30 16:34:58;;;;;;;18.00;9.90;;;;;;;5.70;100.00;98919.39;272859;1271;22399;-88
2023/12/30 16:41:00;;;;;;;27.60;13.90;;;;;;;5.69;100.00;98926.20;273169;1269;22329;-88
2023/12/30 16:47:04;;;;;;;23.80;12.60;;;;;;;5.68;100.00;98926.10;273303;1270;22409;-88
2023/12/30 16:53:07;;;;;;;16.60;10.00;;;;;;;5.66;100.00;98933.33;273174;1254;23748;-88
2023/12/30 16:59:09;;;;;;;23.60;11.70;;;;;;;5.66;100.00;98937.15;270661;1270;25542;-89
2023/12/30 17:05:10;;;;;;;31.00;15.70;;;;;;;5.62;100.00;98944.69;271158;1272;22205;-88
2023/12/30 17:11:11;;;;;;;40.60;21.20;;;;;;;5.55;100.00;98947.11;272713;1275;22342;-87
2023/12/30 17:17:13;;;;;;;50.10;26.60;;;;;;;5.53;100.00;98946.50;273156;1270;23670;-88
2023/12/30 17:23:14;;;;;;;50.20;25.20;;;;;;;5.51;100.00;98949.95;273117;1269;22413;-88
2023/12/30 17:29:20;;;;;;;50.20;25.20;;;;;;;5.52;100.00;98949.07;266716;1270;10001523;-88
2023/12/30 17:35:24;;;;;;;42.60;23.00;;;;;;;5.50;100.00;98948.59;265171;1272;10001555;-89
2023/12/30 17:41:26;;;;;;;52.30;25.70;;;;;;;5.44;100.00;98954.17;272740;1262;22273;-88
2023/12/30 17:47:27;;;;;;;44.50;25.20;;;;;;;5.38;100.00;98955.77;273019;1271;22393;-89
2023/12/30 17:53:29;;;;;;;58.40;29.10;;;;;;;5.36;100.00;98944.30;273058;1264;23399;-88
2023/12/30 17:59:31;;;;;;;70.60;36.50;;;;;;;5.32;100.00;98950.90;272948;1272;22842;-87
2023/12/30 18:05:32;;;;;;;74.50;39.70;;;;;;;5.27;100.00;98952.52;272565;1270;22334;-88
2023/12/30 18:11:35;;;;;;;62.50;38.90;;;;;;;5.26;100.00;98962.66;273118;1271;23160;-88
2023/12/30 18:17:36;;;;;;;91.40;47.70;;;;;;;5.27;100.00;98979.00;273034;1271;23189;-89
2023/12/30 18:23:38;;;;;;;91.00;50.00;;;;;;;5.27;100.00;98987.74;272909;1270;22192;-88
2023/12/30 18:29:39;;;;;;;96.00;52.10;;;;;;;5.28;100.00;98978.57;273139;1270;22221;-89
2023/12/30 18:35:44;;;;;;;74.70;41.00;;;;;;;5.29;100.00;98976.19;272731;1269;23381;-89
2023/12/30 18:41:46;;;;;;;65.30;36.50;;;;;;;5.30;100.00;98973.02;272804;1270;22450;-90
2023/12/30 18:47:52;;;;;;;78.90;41.30;;;;;;;5.27;100.00;98985.33;273121;1267;23609;-89
2023/12/30 18:53:54;;;;;;;104.80;57.30;;;;;;;5.25;100.00;99008.78;272592;1270;22290;-90
2023/12/30 19:00:05;;;;;;;64.20;33.90;;;;;;;5.24;100.00;99006.88;272899;1270;22370;-90
2023/12/30 19:06:06;;;;;;;53.30;30.80;;;;;;;5.29;100.00;99009.13;271898;1270;23547;-89
2023/12/30 19:12:08;;;;;;;38.70;23.70;;;;;;;5.34;100.00;99014.10;273186;1270;22321;-89
2023/12/30 19:18:11;;;;;;;35.00;19.20;;;;;;;5.39;100.00;99019.61;273238;1261;22174;-90
2023/12/30 19:24:13;;;;;;;35.30;20.20;;;;;;;5.44;100.00;99029.55;273013;1269;23424;-90
2023/12/30 19:30:14;;;;;;;31.90;18.30;;;;;;;5.50;100.00;99049.59;273061;1270;22250;-90
2023/12/30 19:36:19;;;;;;;35.60;19.10;;;;;;;5.51;100.00;99066.55;273374;1270;22421;-89
2023/12/30 19:42:21;;;;;;;34.70;18.50;;;;;;;5.50;100.00;99074.59;273223;1270;22284;-90
2023/12/30 19:48:25;;;;;;;33.70;17.50;;;;;;;5.49;100.00;99067.41;273145;1270;22412;-91
2023/12/30 19:54:27;;;;;;;27.10;15.50;;;;;;;5.47;100.00;99057.96;273042;1270;23647;-91
2023/12/30 20:00:28;;;;;;;30.20;15.10;;;;;;;5.43;100.00;99037.35;273306;1270;22673;-90
2023/12/30 20:06:30;;;;;;;21.50;11.60;;;;;;;5.32;100.00;99021.73;273042;1269;22338;-90
2023/12/30 20:12:31;;;;;;;17.80;10.00;;;;;;;5.23;100.00;99017.94;271934;1267;22218;-91
2023/12/30 20:18:33;;;;;;;19.20;11.10;;;;;;;5.18;100.00;99021.27;272875;1270;23604;-89
2023/12/30 20:24:38;;;;;;;19.40;11.80;;;;;;;5.17;100.00;99033.27;272340;1270;22204;-90
2023/12/30 20:30:40;;;;;;;21.80;11.90;;;;;;;5.15;100.00;99044.52;273200;1260;23591;-89
2023/12/30 20:36:42;;;;;;;25.40;14.50;;;;;;;5.02;100.00;99041.34;272680;1270;22798;-90
2023/12/30 20:42:44;;;;;;;27.80;13.90;;;;;;;4.84;100.00;99042.47;272748;1270;22325;-91
2023/12/30 20:48:45;;;;;;;28.00;15.10;;;;;;;4.70;100.00;99038.41;272952;1269;23289;-90
2023/12/30 20:54:47;;;;;;;24.00;13.70;;;;;;;4.63;100.00;99038.10;273154;1270;23413;-90
2023/12/30 21:00:48;;;;;;;24.10;15.10;;;;;;;4.61;100.00;99038.33;273068;1269;22293;-90
2023/12/30 21:06:50;;;;;;;24.50;13.80;;;;;;;4.55;100.00;99034.26;273203;1270;22203;-90
2023/12/30 21:12:51;;;;;;;24.00;13.10;;;;;;;4.55;100.00;99039.34;273227;1270;22422;-90
2023/12/30 21:18:52;;;;;;;22.30;12.50;;;;;;;4.57;100.00;99039.26;273341;1270;22286;-91
2023/12/30 21:24:54;;;;;;;21.40;12.40;;;;;;;4.59;100.00;99038.10;273140;1268;22439;-90
2023/12/30 21:30:55;;;;;;;21.30;13.50;;;;;;;4.61;100.00;99041.12;273212;1270;23030;-90
2023/12/30 21:36:56;;;;;;;21.80;13.40;;;;;;;4.62;100.00;99047.49;273253;1270;22532;-90
2023/12/30 21:42:57;;;;;;;21.70;11.80;;;;;;;4.60;100.00;99040.30;273251;1270;23299;-89
2023/12/30 21:49:00;;;;;;;22.50;13.80;;;;;;;4.56;100.00;99050.08;272866;1270;24112;-89
2023/12/30 21:55:03;;;;;;;25.40;14.20;;;;;;;4.48;100.00;99055.29;272893;1271;22325;-90
2023/12/30 22:01:04;;;;;;;27.30;14.30;;;;;;;4.42;100.00;99053.46;272943;1270;22404;-89
2023/12/30 22:07:06;;;;;;;24.70;14.70;;;;;;;4.40;100.00;99053.46;273206;1270;22236;-90
2023/12/30 22:13:09;;;;;;;38.70;20.40;;;;;;;4.36;100.00;99059.20;273023;1269;23364;-91
2023/12/30 22:19:11;;;;;;;36.10;18.30;;;;;;;4.28;100.00;99060.70;270734;1270;22682;-89
2023/12/30 22:25:12;;;;;;;50.20;21.00;;;;;;;4.22;100.00;99058.80;270290;1270;24301;-90
2023/12/30 22:31:13;;;;;;;41.30;21.50;;;;;;;4.10;100.00;99054.05;272923;1269;22231;-90
2023/12/30 22:37:16;;;;;;;35.80;18.20;;;;;;;4.01;100.00;99054.57;273279;1269;22451;-90
2023/12/30 22:43:17;;;;;;;30.20;15.70;;;;;;;3.94;100.00;99055.74;273223;1270;22178;-89
2023/12/30 22:49:18;;;;;;;26.60;15.80;;;;;;;3.93;100.00;99058.81;273198;1270;22373;-89
2023/12/30 22:55:20;;;;;;;33.50;17.00;;;;;;;3.93;100.00;99053.41;272952;1269;22203;-91
2023/12/30 23:01:21;;;;;;;32.60;16.50;;;;;;;3.98;100.00;99049.11;273158;1270;22417;-90
2023/12/30 23:07:22;;;;;;;27.50;13.90;;;;;;;4.04;100.00;99047.09;273329;1270;22958;-90
2023/12/30 23:13:24;;;;;;;29.70;15.30;;;;;;;4.08;100.00;99051.35;273245;1269;22240;-90
2023/12/30 23:19:26;;;;;;;79.70;30.80;;;;;;;4.12;100.00;99049.10;273311;1271;23186;-90
2023/12/30 23:25:27;;;;;;;34.70;20.10;;;;;;;4.15;100.00;99058.33;273481;1269;22269;-89
2023/12/30 23:31:28;;;;;;;60.70;28.30;;;;;;;4.15;100.00;99058.25;273229;1270;23189;-90
2023/12/30 23:37:32;;;;;;;62.70;29.80;;;;;;;4.12;100.00;99060.03;273242;1269;22348;-89
2023/12/30 23:43:34;;;;;;;53.90;27.60;;;;;;;4.16;100.00;99062.42;273322;1270;22235;-91
2023/12/30 23:49:36;;;;;;;49.50;26.00;;;;;;;4.21;100.00;99064.90;273111;1271;22299;-89
2023/12/30 23:55:37;;;;;;;42.40;23.90;;;;;;;4.24;100.00;99059.30;273219;1269;22190;-90
